createdAt,value
2018-07-11T00:00:20.998Z,90.72
2018-07-11T00:01:29.859Z,90.77
2018-07-11T00:02:38.719Z,90.91
2018-07-11T00:03:47.577Z,90.82
2018-07-11T00:04:56.589Z,90.77
2018-07-11T00:06:05.455Z,90.67
2018-07-11T00:07:14.314Z,91.25
2018-07-11T00:08:23.175Z,90.3
2018-07-11T00:09:32.035Z,92.02
2018-07-11T00:10:40.894Z,90.1
2018-07-11T00:11:50.037Z,90.2
2018-07-11T00:12:58.896Z,90.77
2018-07-11T00:14:07.756Z,90.48
2018-07-11T00:15:16.617Z,90.48
2018-07-11T00:16:25.475Z,90.77
2018-07-11T00:17:34.612Z,90.58
2018-07-11T00:18:43.469Z,90.48
2018-07-11T00:19:52.327Z,90.67
2018-07-11T00:21:01.188Z,90.48
2018-07-11T00:22:10.477Z,91.06
2018-07-11T00:23:19.337Z,90.1
2018-07-11T00:24:28.473Z,89.72
2018-07-11T00:25:37.332Z,89.29
2018-07-11T00:26:46.191Z,90.1
2018-07-11T00:27:55.328Z,89.91
2018-07-11T00:29:04.190Z,89.87
2018-07-11T00:30:13.053Z,89.77
2018-07-11T00:31:21.914Z,89.77
2018-07-11T00:32:30.777Z,89.67
2018-07-11T00:33:39.631Z,90.16
2018-07-11T00:34:48.492Z,88.72
2018-07-11T00:35:57.353Z,88.53
2018-07-11T00:37:06.532Z,89.67
2018-07-11T00:38:15.354Z,88.05
2018-07-11T00:39:24.489Z,88.81
2018-07-11T00:40:33.346Z,87.66
2018-07-11T00:41:42.204Z,89.58
2018-07-11T00:42:51.062Z,89.29
2018-07-11T00:43:59.922Z,89.01
2018-07-11T00:45:08.779Z,88.24
2018-07-11T00:46:17.640Z,89.29
2018-07-11T00:47:26.502Z,89.1
2018-07-11T00:48:35.357Z,89.2
2018-07-11T00:49:44.215Z,89.01
2018-07-11T00:50:53.075Z,87.76
2018-07-11T00:52:01.938Z,89.2
2018-07-11T00:53:10.798Z,89.01
2018-07-11T00:54:19.659Z,89.01
2018-07-11T00:55:28.517Z,89.39
2018-07-11T00:56:37.374Z,89.39
2018-07-11T00:57:46.240Z,88.81
2018-07-11T00:58:55.147Z,88.72
2018-07-11T01:00:04.008Z,89.01
2018-07-11T01:01:13.142Z,88.24
2018-07-11T01:02:22.151Z,88.34
2018-07-11T01:03:31.009Z,88.91
2018-07-11T01:04:39.881Z,87.66
2018-07-11T01:05:48.754Z,87.57
2018-07-11T01:06:57.641Z,87.38
2018-07-11T01:08:07.425Z,87.86
2018-07-11T01:09:16.303Z,86.14
2018-07-11T01:10:25.180Z,86.71
2018-07-11T01:11:34.055Z,85.38
2018-07-11T01:12:42.934Z,86.14
2018-07-11T01:13:51.810Z,86.52
2018-07-11T01:15:00.688Z,86.8
2018-07-11T01:16:09.576Z,87
2018-07-11T01:17:19.012Z,86.52
2018-07-11T01:18:27.887Z,85.85
2018-07-11T01:19:36.860Z,85.75
2018-07-11T01:20:45.741Z,86.33
2018-07-11T01:21:54.898Z,85.94
2018-07-11T01:23:03.772Z,85.47
2018-07-11T01:24:12.651Z,85.75
2018-07-11T01:25:21.680Z,85.18
2018-07-11T01:26:30.555Z,85.75
2018-07-11T01:27:39.434Z,85.75
2018-07-11T01:28:48.312Z,85.47
2018-07-11T01:29:57.472Z,85.38
2018-07-11T01:31:06.786Z,85.28
2018-07-11T01:32:15.662Z,84.89
2018-07-11T01:33:24.541Z,84.89
2018-07-11T01:34:33.418Z,84.61
2018-07-11T01:35:42.294Z,84.61
2018-07-11T01:36:51.320Z,84.52
2018-07-11T01:38:00.757Z,84.13
2018-07-11T01:39:09.634Z,84.7
2018-07-11T01:40:18.510Z,84.8
2018-07-11T01:41:27.386Z,84.52
2018-07-11T01:42:36.413Z,83.65
2018-07-11T01:43:45.565Z,83.56
2018-07-11T01:44:54.441Z,83.84
2018-07-11T01:46:03.634Z,83.27
2018-07-11T01:47:12.789Z,84.03
2018-07-11T01:48:21.765Z,83.17
2018-07-11T01:49:30.644Z,82.6
2018-07-11T01:50:39.520Z,84.03
2018-07-11T01:51:48.397Z,83.46
2018-07-11T01:52:57.569Z,82.51
2018-07-11T01:54:06.549Z,82.7
2018-07-11T01:55:15.436Z,82.31
2018-07-11T01:56:24.588Z,82.6
2018-07-11T01:57:33.743Z,81.93
2018-07-11T01:58:42.619Z,81.45
2018-07-11T01:59:51.643Z,81.74
2018-07-11T02:01:00.522Z,81.84
2018-07-11T02:02:09.677Z,81.84
2018-07-11T02:03:18.550Z,81.26
2018-07-11T02:04:27.709Z,81.55
2018-07-11T02:05:36.588Z,81.84
2018-07-11T02:06:45.467Z,81.84
2018-07-11T02:07:54.344Z,81.26
2018-07-11T02:09:03.223Z,81.84
2018-07-11T02:10:12.099Z,81.16
2018-07-11T02:11:20.977Z,81.65
2018-07-11T02:12:29.851Z,81.16
2018-07-11T02:13:39.021Z,80.98
2018-07-11T02:14:47.898Z,81.65
2018-07-11T02:15:56.773Z,81.26
2018-07-11T02:17:05.802Z,80.21
2018-07-11T02:18:14.680Z,80.4
2018-07-11T02:19:23.557Z,80.21
2018-07-11T02:20:32.436Z,80.59
2018-07-11T02:21:41.309Z,80.5
2018-07-11T02:22:50.186Z,80.21
2018-07-11T02:23:59.059Z,79.35
2018-07-11T02:25:07.934Z,79.54
2018-07-11T02:26:16.812Z,79.35
2018-07-11T02:27:25.687Z,78.87
2018-07-11T02:28:35.197Z,78.68
2018-07-11T02:29:44.074Z,78.97
2018-07-11T02:30:52.952Z,78.3
2018-07-11T02:32:02.115Z,79.93
2018-07-11T02:33:11.263Z,79.83
2018-07-11T02:34:20.290Z,79.06
2018-07-11T02:35:29.169Z,78.87
2018-07-11T02:36:38.885Z,79.35
2018-07-11T02:37:48.050Z,78.97
2018-07-11T02:38:57.229Z,78.3
2018-07-11T02:40:06.388Z,77.25
2018-07-11T02:41:15.270Z,77.15
2018-07-11T02:42:24.431Z,77.06
2018-07-11T02:43:33.582Z,76.48
2018-07-11T02:44:42.744Z,75.91
2018-07-11T02:45:51.620Z,75.91
2018-07-11T02:47:01.064Z,75.62
2018-07-11T02:48:10.220Z,75.62
2018-07-11T02:49:19.373Z,75.52
2018-07-11T02:50:28.530Z,75.81
2018-07-11T02:51:37.759Z,74.48
2018-07-11T02:52:47.240Z,73.9
2018-07-11T02:53:56.396Z,73.99
2018-07-11T02:55:05.273Z,73.43
2018-07-11T02:56:14.439Z,73.43
2018-07-11T02:57:23.571Z,72.37
2018-07-11T02:58:32.724Z,72.28
2018-07-11T02:59:42.155Z,72.56
2018-07-11T03:00:51.051Z,71.99
2018-07-11T03:02:00.470Z,71.67
2018-07-11T03:03:10.006Z,71.03
2018-07-11T03:04:19.164Z,71.51
2018-07-11T03:05:28.602Z,70.52
2018-07-11T03:06:37.480Z,70.52
2018-07-11T03:07:46.924Z,71.38
2018-07-11T03:08:56.486Z,70.71
2018-07-11T03:10:05.363Z,70.14
2018-07-11T03:11:14.238Z,69.47
2018-07-11T03:12:23.117Z,69.09
2018-07-11T03:13:31.998Z,67.94
2018-07-11T03:14:41.150Z,67.65
2018-07-11T03:15:50.033Z,67.08
2018-07-11T03:16:59.190Z,66.99
2018-07-11T03:18:08.349Z,66.41
2018-07-11T03:19:17.230Z,67.65
2018-07-11T03:20:26.204Z,66.5
2018-07-11T03:21:35.369Z,66.22
2018-07-11T03:22:44.252Z,65.55
2018-07-11T03:23:53.689Z,65.55
2018-07-11T03:25:02.580Z,65.45
2018-07-11T03:26:11.739Z,64.62
2018-07-11T03:27:20.900Z,64.15
2018-07-11T03:28:30.050Z,64.12
2018-07-11T03:29:38.934Z,63.57
2018-07-11T03:30:47.807Z,63.67
2018-07-11T03:31:57.514Z,63.67
2018-07-11T03:33:06.676Z,62.62
2018-07-11T03:34:16.108Z,63.19
2018-07-11T03:35:25.549Z,62.81
2018-07-11T03:36:34.431Z,61.66
2018-07-11T03:37:43.310Z,62.04
2018-07-11T03:38:52.192Z,61.66
2018-07-11T03:40:01.069Z,61.38
2018-07-11T03:41:10.225Z,61.66
2018-07-11T03:42:19.378Z,61.66
2018-07-11T03:43:28.260Z,62.43
2018-07-11T03:44:37.138Z,61.38
2018-07-11T03:45:46.011Z,61.57
2018-07-11T03:46:55.169Z,61.66
2018-07-11T03:48:04.048Z,61.95
2018-07-11T03:49:12.924Z,61.66
2018-07-11T03:50:21.801Z,61.88
2018-07-11T03:51:30.676Z,62.27
2018-07-11T03:52:39.551Z,61.98
2018-07-11T03:53:48.456Z,61.79
2018-07-11T03:54:57.965Z,62.17
2018-07-11T03:56:07.116Z,61.69
2018-07-11T03:57:15.992Z,61.22
2018-07-11T03:58:24.868Z,60.71
2018-07-11T03:59:33.746Z,60.74
2018-07-11T04:00:42.779Z,60.45
2018-07-11T04:01:51.654Z,59.97
2018-07-11T04:03:00.532Z,59.88
2018-07-11T04:04:09.413Z,59.97
2018-07-11T04:05:18.286Z,59.78
2018-07-11T04:06:27.543Z,59.2
2018-07-11T04:07:36.421Z,59.97
2018-07-11T04:08:45.576Z,59.2
2018-07-11T04:09:55.012Z,59.59
2018-07-11T04:11:03.891Z,59.3
2018-07-11T04:12:12.771Z,58.83
2018-07-11T04:13:21.651Z,58.83
2018-07-11T04:14:30.804Z,58.73
2018-07-11T04:15:39.962Z,58.44
2018-07-11T04:16:48.847Z,58.06
2018-07-11T04:17:57.725Z,58.28
2018-07-11T04:19:06.625Z,57.77
2018-07-11T04:20:15.481Z,57.9
2018-07-11T04:21:24.356Z,57.68
2018-07-11T04:22:33.529Z,57.7
2018-07-11T04:23:42.505Z,57.51
2018-07-11T04:24:51.383Z,57.42
2018-07-11T04:26:00.265Z,57.1
2018-07-11T04:27:09.145Z,57.13
2018-07-11T04:28:18.023Z,56.56
2018-07-11T04:29:26.902Z,56.84
2018-07-11T04:30:35.781Z,56.65
2018-07-11T04:31:44.657Z,56.94
2018-07-11T04:32:53.811Z,57.13
2018-07-11T04:34:02.970Z,57.23
2018-07-11T04:35:12.486Z,56.94
2018-07-11T04:36:21.360Z,56.94
2018-07-11T04:37:30.237Z,57.04
2018-07-11T04:38:39.399Z,56.84
2018-07-11T04:39:48.276Z,57.04
2018-07-11T04:40:57.254Z,57.04
2018-07-11T04:42:06.133Z,57.04
2018-07-11T04:43:15.009Z,56.65
2018-07-11T04:44:23.879Z,56.65
2018-07-11T04:45:33.036Z,56.84
2018-07-11T04:46:42.264Z,56.08
2018-07-11T04:47:51.141Z,56.75
2018-07-11T04:49:00.297Z,56.56
2018-07-11T04:50:09.178Z,57.04
2018-07-11T04:51:18.059Z,56.49
2018-07-11T04:52:27.038Z,56.27
2018-07-11T04:53:36.193Z,56.27
2018-07-11T04:54:45.072Z,56.46
2018-07-11T04:55:53.948Z,55.88
2018-07-11T04:57:03.115Z,56.17
2018-07-11T04:58:12.798Z,55.88
2018-07-11T04:59:21.676Z,56.08
2018-07-11T05:00:30.554Z,55.91
2018-07-11T05:01:39.720Z,56.08
2018-07-11T05:02:48.599Z,55.63
2018-07-11T05:03:58.043Z,55.22
2018-07-11T05:05:06.919Z,55.02
2018-07-11T05:06:15.797Z,55.22
2018-07-11T05:07:24.675Z,55.34
2018-07-11T05:08:33.555Z,55.44
2018-07-11T05:09:42.710Z,54.96
2018-07-11T05:10:51.629Z,55.34
2018-07-11T05:12:00.465Z,55.44
2018-07-11T05:13:09.341Z,55.24
2018-07-11T05:14:18.493Z,54.96
2018-07-11T05:15:27.524Z,54.77
2018-07-11T05:16:36.401Z,54.28
2018-07-11T05:17:45.278Z,54.96
2018-07-11T05:18:54.153Z,54.96
2018-07-11T05:20:03.033Z,55.15
2018-07-11T05:21:12.338Z,54.96
2018-07-11T05:22:21.217Z,55.34
2018-07-11T05:23:30.095Z,54.86
2018-07-11T05:24:38.973Z,55.05
2018-07-11T05:25:47.850Z,55.05
2018-07-11T05:26:56.829Z,54.86
2018-07-11T05:28:05.997Z,55.65
2018-07-11T05:29:14.869Z,54.86
2018-07-11T05:30:23.748Z,54.99
2018-07-11T05:31:32.621Z,55.27
2018-07-11T05:32:41.852Z,55.75
2018-07-11T05:33:50.730Z,55.65
2018-07-11T05:34:59.605Z,55.46
2018-07-11T05:36:08.483Z,55.56
2018-07-11T05:37:18.002Z,55.56
2018-07-11T05:38:27.131Z,55.85
2018-07-11T05:39:36.007Z,55.94
2018-07-11T05:40:44.885Z,55.65
2018-07-11T05:41:54.048Z,56.52
2018-07-11T05:43:02.927Z,56.32
2018-07-11T05:44:11.906Z,56.32
2018-07-11T05:45:20.788Z,56.13
2018-07-11T05:46:29.956Z,55.08
2018-07-11T05:47:39.115Z,56.52
2018-07-11T05:48:47.993Z,55.85
2018-07-11T05:49:57.020Z,55.85
2018-07-11T05:51:05.901Z,55.46
2018-07-11T05:52:15.091Z,55.75
2018-07-11T05:53:24.221Z,55.46
2018-07-11T05:54:33.098Z,55.18
2018-07-11T05:55:42.019Z,55.36
2018-07-11T05:56:50.857Z,54.99
2018-07-11T05:57:59.736Z,55.94
2018-07-11T05:59:08.616Z,55.65
2018-07-11T06:00:17.776Z,55.75
2018-07-11T06:01:26.942Z,55.85
2018-07-11T06:02:36.124Z,54.79
2018-07-11T06:03:45.251Z,55.75
2018-07-11T06:04:54.413Z,55.58
2018-07-11T06:06:03.289Z,55.68
2018-07-11T06:07:12.320Z,55.97
2018-07-11T06:08:21.205Z,55.3
2018-07-11T06:09:30.085Z,55.11
2018-07-11T06:10:39.243Z,55.21
2018-07-11T06:11:48.405Z,55.3
2018-07-11T06:12:57.284Z,54.53
2018-07-11T06:14:06.720Z,54.44
2018-07-11T06:15:15.603Z,54.24
2018-07-11T06:16:24.553Z,53.86
2018-07-11T06:17:33.773Z,54.22
2018-07-11T06:18:43.108Z,52.87
2018-07-11T06:19:51.988Z,54.15
2018-07-11T06:21:00.880Z,52.62
2018-07-11T06:22:09.747Z,53.38
2018-07-11T06:23:18.627Z,52.71
2018-07-11T06:24:27.506Z,52.81
2018-07-11T06:25:36.670Z,51.73
2018-07-11T06:26:45.552Z,50.38
2018-07-11T06:27:54.444Z,49.71
2018-07-11T06:29:03.312Z,49.33
2018-07-11T06:30:12.341Z,48.38
2018-07-11T06:31:21.221Z,48.95
2018-07-11T06:32:30.098Z,48.09
2018-07-11T06:33:39.330Z,47.99
2018-07-11T06:34:48.524Z,47.71
2018-07-11T06:35:57.551Z,47.03
2018-07-11T06:37:06.430Z,47.03
2018-07-11T06:38:15.587Z,45.98
2018-07-11T06:39:24.479Z,44.73
2018-07-11T06:40:34.051Z,42.63
2018-07-11T06:41:42.925Z,37.43
2018-07-11T06:42:51.804Z,35.14
2018-07-11T06:44:00.680Z,33.22
2018-07-11T06:45:09.557Z,32.07
2018-07-11T06:46:18.433Z,29.39
2018-07-11T06:47:27.411Z,27.86
2018-07-11T06:48:36.293Z,26.33
2018-07-11T06:49:45.171Z,26.42
2018-07-11T06:50:54.049Z,25.66
2018-07-11T06:52:03.208Z,24.99
2018-07-11T06:53:12.621Z,24.6
2018-07-11T06:54:21.499Z,23.74
2018-07-11T06:55:30.376Z,22.69
2018-07-11T06:56:39.256Z,21.06
2018-07-11T06:57:48.185Z,20.01
2018-07-11T06:58:57.159Z,19.34
2018-07-11T07:00:06.037Z,19.34
2018-07-11T07:01:14.914Z,19.34
2018-07-11T07:02:23.792Z,19.92
2018-07-11T07:03:32.989Z,19.43
2018-07-11T07:04:43.324Z,19.34
2018-07-11T07:05:52.202Z,18.29
2018-07-11T07:07:01.359Z,18.67
2018-07-11T07:08:10.237Z,18.2
2018-07-11T07:09:19.124Z,18.68
2018-07-11T07:10:28.287Z,18.48
2018-07-11T07:11:37.220Z,18.39
2018-07-11T07:12:46.324Z,18.87
2018-07-11T07:13:55.204Z,18.49
2018-07-11T07:15:04.081Z,17.53
2018-07-11T07:16:12.961Z,16.38
2018-07-11T07:17:22.118Z,15.9
2018-07-11T07:18:31.272Z,16.57
2018-07-11T07:19:40.150Z,16.86
2018-07-11T07:20:49.026Z,17.53
2018-07-11T07:21:58.007Z,17.53
2018-07-11T07:23:06.888Z,17.91
2018-07-11T07:24:16.042Z,16.38
2018-07-11T07:25:25.194Z,16
2018-07-11T07:26:34.073Z,15.33
2018-07-11T07:27:42.961Z,14.94
2018-07-11T07:28:52.112Z,15.23
2018-07-11T07:30:01.352Z,14.65
2018-07-11T07:31:10.228Z,13.79
2018-07-11T07:32:19.108Z,13.41
2018-07-11T07:33:28.138Z,13.21
2018-07-11T07:34:37.027Z,14.18
2018-07-11T07:35:45.895Z,13.7
2018-07-11T07:36:54.835Z,13.7
2018-07-11T07:38:04.049Z,14.18
2018-07-11T07:39:12.923Z,14.56
2018-07-11T07:40:22.080Z,14.09
2018-07-11T07:41:30.958Z,14.09
2018-07-11T07:42:39.834Z,14.18
2018-07-11T07:43:48.715Z,14.09
2018-07-11T07:44:57.593Z,14.47
2018-07-11T07:46:06.752Z,14.28
2018-07-11T07:47:15.906Z,13.6
2018-07-11T07:48:24.785Z,13.32
2018-07-11T07:49:33.667Z,13.13
2018-07-11T07:50:42.546Z,13.03
2018-07-11T07:51:51.424Z,12.65
2018-07-11T07:53:00.581Z,12.65
2018-07-11T07:54:09.461Z,13.32
2018-07-11T07:55:18.339Z,13.03
2018-07-11T07:56:27.215Z,12.84
2018-07-11T07:57:36.096Z,12.55
2018-07-11T07:58:45.782Z,12.46
2018-07-11T07:59:54.938Z,12.65
2018-07-11T08:01:03.819Z,12.37
2018-07-11T08:02:12.800Z,11.79
2018-07-11T08:03:21.683Z,11.12
2018-07-11T08:04:30.561Z,11.31
2018-07-11T08:05:40.004Z,11.89
2018-07-11T08:06:48.883Z,11.79
2018-07-11T08:07:58.442Z,11.89
2018-07-11T08:09:07.321Z,11.89
2018-07-11T08:10:16.752Z,11.12
2018-07-11T08:11:25.637Z,11.79
2018-07-11T08:12:34.538Z,11.6
2018-07-11T08:13:43.543Z,11.6
2018-07-11T08:14:52.421Z,13.04
2018-07-11T08:16:01.585Z,13.04
2018-07-11T08:17:10.465Z,12.65
2018-07-11T08:18:19.347Z,12.27
2018-07-11T08:19:28.654Z,11.79
2018-07-11T08:20:37.534Z,12.08
2018-07-11T08:21:46.412Z,11.6
2018-07-11T08:22:55.292Z,11.8
2018-07-11T08:24:04.431Z,11.79
2018-07-11T08:25:13.296Z,11.51
2018-07-11T08:26:22.161Z,11.22
2018-07-11T08:27:31.365Z,10.74
2018-07-11T08:28:40.163Z,10.83
2018-07-11T08:29:49.023Z,10.64
2018-07-11T08:30:58.167Z,10.45
2018-07-11T08:32:07.025Z,10.83
2018-07-11T08:33:15.889Z,10.17
2018-07-11T08:34:25.038Z,10.26
2018-07-11T08:35:33.900Z,10.74
2018-07-11T08:36:43.038Z,10.64
2018-07-11T08:37:51.902Z,10.17
2018-07-11T08:39:01.603Z,10.07
2018-07-11T08:40:10.466Z,9.97
2018-07-11T08:41:19.329Z,10.16
2018-07-11T08:42:28.199Z,9.5
2018-07-11T08:43:37.061Z,9.01
2018-07-11T08:44:45.927Z,9.11
2018-07-11T08:45:54.789Z,9.3
2018-07-11T08:47:03.808Z,8.73
2018-07-11T08:48:12.844Z,9.01
2018-07-11T08:49:21.528Z,9.5
2018-07-11T08:50:30.392Z,9.59
2018-07-11T08:51:39.817Z,8.92
2018-07-11T08:52:48.779Z,9.4
2018-07-11T08:53:57.653Z,10.17
2018-07-11T08:55:06.539Z,10.26
2018-07-11T08:56:15.817Z,9.78
2018-07-11T08:57:24.680Z,9.5
2018-07-11T08:58:33.697Z,8.83
2018-07-11T08:59:42.835Z,8.54
2018-07-11T09:00:51.699Z,8.44
2018-07-11T09:02:00.844Z,8.35
2018-07-11T09:03:09.711Z,8.34
2018-07-11T09:04:18.671Z,9.21
2018-07-11T09:05:27.534Z,8.53
2018-07-11T09:06:36.398Z,7.96
2018-07-11T09:07:45.259Z,7.77
2018-07-11T09:08:54.123Z,7.48
2018-07-11T09:10:02.991Z,7.57
2018-07-11T09:11:12.130Z,7.48
2018-07-11T09:12:20.997Z,7.29
2018-07-11T09:13:30.428Z,5.57
2018-07-11T09:14:39.642Z,6.23
2018-07-11T09:15:49.055Z,5.56
2018-07-11T09:16:58.202Z,5.66
2018-07-11T09:18:07.066Z,5.08
2018-07-11T09:19:16.204Z,4.9
2018-07-11T09:20:25.168Z,4.41
2018-07-11T09:21:34.036Z,4.6
2018-07-11T09:22:42.893Z,5.46
2018-07-11T09:23:51.755Z,5.18
2018-07-11T09:25:00.967Z,4.79
2018-07-11T09:26:09.828Z,3.45
2018-07-11T09:27:18.702Z,3.64
2018-07-11T09:28:27.551Z,3.36
2018-07-11T09:29:36.688Z,2.97
2018-07-11T09:30:45.831Z,3.55
2018-07-11T09:31:55.323Z,3.74
2018-07-11T09:33:04.496Z,3.36
2018-07-11T09:34:13.638Z,2.39
2018-07-11T09:35:22.778Z,1.34
2018-07-11T09:36:31.638Z,1.92
2018-07-11T09:37:40.994Z,1.34
2018-07-11T09:38:50.141Z,0
2018-07-11T09:39:59.278Z,0
2018-07-11T09:41:08.141Z,0
2018-07-11T09:42:17.000Z,0
2018-07-11T09:43:26.302Z,0
2018-07-11T09:44:35.164Z,0.09
2018-07-11T09:45:44.309Z,0.09
2018-07-11T09:46:53.448Z,0.19
2018-07-11T09:48:02.309Z,0
2018-07-11T09:49:11.172Z,0
2018-07-11T09:50:20.034Z,0
2018-07-11T09:51:28.894Z,0
2018-07-11T09:52:37.757Z,0
2018-07-11T09:53:46.622Z,0
2018-07-11T09:54:55.906Z,0
2018-07-11T09:56:05.323Z,0
2018-07-11T09:57:14.188Z,0
2018-07-11T09:58:23.051Z,0
2018-07-11T09:59:31.914Z,0.19
2018-07-11T10:00:40.778Z,0.09
2018-07-11T10:01:49.638Z,0
2018-07-11T10:02:58.502Z,0.48
2018-07-11T10:04:07.363Z,1.44
2018-07-11T10:05:16.559Z,3.64
2018-07-11T10:06:25.373Z,5.76
2018-07-11T10:07:34.510Z,3.64
2018-07-11T10:08:43.373Z,3.55
2018-07-11T10:09:52.234Z,3.36
2018-07-11T10:11:01.098Z,3.74
2018-07-11T10:12:10.064Z,3.84
2018-07-11T10:13:19.205Z,3.74
2018-07-11T10:14:28.066Z,3.55
2018-07-11T10:15:36.928Z,2.11
2018-07-11T10:16:45.796Z,2.3
2018-07-11T10:17:54.659Z,2.11
2018-07-11T10:19:03.522Z,2.78
2018-07-11T10:20:12.384Z,3.17
2018-07-11T10:21:21.247Z,3.45
2018-07-11T10:22:30.387Z,3.26
2018-07-11T10:23:39.631Z,3.64
2018-07-11T10:24:48.495Z,0.57
2018-07-11T10:25:57.358Z,2.3
2018-07-11T10:27:06.222Z,4.03
2018-07-11T10:28:15.090Z,2.88
2018-07-11T10:29:24.049Z,5.08
2018-07-11T10:30:33.188Z,4.61
2018-07-11T10:31:42.051Z,4.7
2018-07-11T10:32:50.913Z,7.29
2018-07-11T10:33:59.776Z,4.99
2018-07-11T10:35:08.918Z,4.51
2018-07-11T10:36:17.781Z,7.29
2018-07-11T10:37:26.922Z,7.49
2018-07-11T10:38:35.782Z,4.41
2018-07-11T10:39:44.651Z,5.57
2018-07-11T10:40:53.517Z,4.7
2018-07-11T10:42:02.660Z,5.38
2018-07-11T10:43:11.526Z,5.28
2018-07-11T10:44:20.383Z,5.85
2018-07-11T10:45:29.248Z,5.28
2018-07-11T10:46:38.387Z,6.24
2018-07-11T10:47:47.528Z,5.76
2018-07-11T10:48:56.395Z,4.99
2018-07-11T10:50:05.545Z,6.24
2018-07-11T10:51:14.407Z,8.84
2018-07-11T10:52:23.269Z,7.78
2018-07-11T10:53:32.132Z,9.03
2018-07-11T10:54:40.995Z,8.17
2018-07-11T10:55:50.138Z,11.05
2018-07-11T10:56:59.006Z,12.59
2018-07-11T10:58:07.967Z,8.45
2018-07-11T10:59:16.831Z,11.72
2018-07-11T11:00:36.663Z,13.46
2018-07-11T11:01:46.899Z,12.4
2018-07-11T11:02:55.761Z,10.67
2018-07-11T11:04:04.779Z,10.96
2018-07-11T11:05:13.646Z,12.69
2018-07-11T11:06:22.513Z,15.67
2018-07-11T11:07:31.378Z,17.3
2018-07-11T11:08:40.242Z,15.86
2018-07-11T11:09:49.255Z,14.51
2018-07-11T11:10:58.122Z,14.9
2018-07-11T11:12:07.060Z,14.9
2018-07-11T11:13:16.173Z,19.33
2018-07-11T11:14:25.300Z,18.26
2018-07-11T11:15:34.592Z,15.58
2018-07-11T11:16:43.456Z,19.13
2018-07-11T11:17:52.322Z,18.85
2018-07-11T11:19:01.186Z,19.8
2018-07-11T11:20:10.052Z,15.87
2018-07-11T11:21:19.067Z,20.39
2018-07-11T11:22:28.207Z,17.79
2018-07-11T11:23:37.350Z,22.31
2018-07-11T11:24:46.215Z,26.25
2018-07-11T11:25:55.081Z,27.6
2018-07-11T11:27:03.946Z,27.91
2018-07-11T11:28:12.812Z,31.93
2018-07-11T11:29:21.954Z,27.04
2018-07-11T11:30:30.820Z,27.71
2018-07-11T11:31:40.240Z,26.93
2018-07-11T11:32:49.536Z,31.83
2018-07-11T11:33:58.404Z,32.79
2018-07-11T11:35:07.546Z,34.45
2018-07-11T11:36:16.412Z,37.22
2018-07-11T11:37:25.279Z,39.33
2018-07-11T11:38:34.147Z,40.01
2018-07-11T11:39:43.286Z,36.45
2018-07-11T11:40:52.151Z,28.47
2018-07-11T11:42:01.170Z,35.79
2018-07-11T11:43:09.879Z,36.54
2018-07-11T11:44:18.744Z,33.85
2018-07-11T11:45:27.611Z,33.08
2018-07-11T11:46:36.471Z,34.72
2018-07-11T11:47:45.335Z,32.41
2018-07-11T11:48:54.200Z,37.12
2018-07-11T11:50:03.115Z,38.18
2018-07-11T11:51:11.980Z,38.68
2018-07-11T11:52:20.845Z,40.51
2018-07-11T11:53:29.993Z,37.72
2018-07-11T11:54:38.854Z,35.12
2018-07-11T11:55:47.719Z,40.41
2018-07-11T11:56:56.585Z,40.03
2018-07-11T11:58:05.725Z,40.39
2018-07-11T11:59:14.870Z,41.26
2018-07-11T12:00:23.736Z,42.7
2018-07-11T12:01:32.887Z,41.93
2018-07-11T12:02:41.744Z,43.95
2018-07-11T12:03:50.608Z,38.95
2018-07-11T12:04:59.751Z,35.3
2018-07-11T12:06:08.894Z,42.12
2018-07-11T12:07:17.790Z,43.37
2018-07-11T12:08:27.018Z,44.91
2018-07-11T12:09:35.881Z,35.68
2018-07-11T12:10:44.750Z,35.58
2018-07-11T12:11:53.612Z,40.68
2018-07-11T12:13:02.758Z,39.33
2018-07-11T12:14:11.623Z,41.74
2018-07-11T12:15:20.488Z,44.14
2018-07-11T12:16:29.356Z,42.8
2018-07-11T12:17:38.224Z,39.53
2018-07-11T12:18:47.090Z,40.58
2018-07-11T12:19:55.958Z,41.74
2018-07-11T12:21:05.158Z,33.85
2018-07-11T12:22:13.959Z,39.43
2018-07-11T12:23:22.826Z,36.35
2018-07-11T12:24:31.837Z,37.7
2018-07-11T12:25:40.985Z,36.45
2018-07-11T12:26:49.848Z,34.23
2018-07-11T12:27:58.714Z,36.45
2018-07-11T12:29:07.584Z,35.95
2018-07-11T12:30:16.592Z,34.53
2018-07-11T12:31:25.455Z,34.12
2018-07-11T12:32:34.322Z,34.89
2018-07-11T12:33:43.730Z,34.7
2018-07-11T12:34:52.592Z,30.95
2018-07-11T12:36:01.812Z,33.16
2018-07-11T12:37:10.673Z,34.03
2018-07-11T12:38:19.536Z,33.45
2018-07-11T12:39:28.683Z,31.82
2018-07-11T12:40:37.544Z,32.2
2018-07-11T12:41:46.784Z,32.97
2018-07-11T12:42:55.647Z,31.34
2018-07-11T12:44:04.509Z,29.9
2018-07-11T12:45:13.372Z,32.89
2018-07-11T12:46:22.239Z,33.95
2018-07-11T12:47:31.738Z,33.66
2018-07-11T12:48:40.878Z,33.75
2018-07-11T12:49:49.740Z,32.03
2018-07-11T12:50:58.602Z,32.98
2018-07-11T12:52:07.472Z,35.2
2018-07-11T12:53:16.683Z,35.12
2018-07-11T12:54:25.557Z,32.14
2018-07-11T12:55:34.421Z,34.92
2018-07-11T12:56:43.283Z,36.37
2018-07-11T12:57:52.151Z,30.88
2018-07-11T12:59:01.114Z,36.77
2018-07-11T13:00:10.254Z,36.77
2018-07-11T13:01:19.123Z,37.35
2018-07-11T13:02:28.264Z,40.94
2018-07-11T13:03:37.133Z,42.28
2018-07-11T13:04:46.146Z,42.47
2018-07-11T13:05:55.013Z,38.53
2018-07-11T13:07:03.878Z,42.38
2018-07-11T13:08:13.026Z,46.04
2018-07-11T13:09:22.168Z,42.96
2018-07-11T13:10:31.414Z,43.92
2018-07-11T13:11:40.281Z,44.21
2018-07-11T13:12:49.150Z,49.32
2018-07-11T13:13:58.576Z,44.89
2018-07-11T13:15:07.722Z,45.84
2018-07-11T13:16:17.117Z,49.99
2018-07-11T13:17:26.720Z,53.07
2018-07-11T13:18:36.147Z,47.1
2018-07-11T13:19:45.016Z,48.25
2018-07-11T13:20:54.436Z,50.47
2018-07-11T13:22:03.351Z,57.21
2018-07-11T13:23:12.217Z,57.69
2018-07-11T13:24:21.083Z,53.27
2018-07-11T13:25:29.993Z,55
2018-07-11T13:26:38.817Z,57.21
2018-07-11T13:27:47.681Z,59.14
2018-07-11T13:28:56.547Z,59.14
2018-07-11T13:30:06.243Z,59.72
2018-07-11T13:31:15.385Z,62.51
2018-07-11T13:32:24.528Z,62.09
2018-07-11T13:33:33.694Z,60.94
2018-07-11T13:34:42.539Z,59.69
2018-07-11T13:35:51.410Z,58.92
2018-07-11T13:37:00.271Z,59.11
2018-07-11T13:38:09.156Z,60.07
2018-07-11T13:39:18.699Z,57.95
2018-07-11T13:40:27.857Z,53.91
2018-07-11T13:41:36.725Z,53.43
2018-07-11T13:42:45.587Z,51.38
2018-07-11T13:43:54.731Z,49.94
2018-07-11T13:45:03.868Z,51.96
2018-07-11T13:46:12.731Z,48.69
2018-07-11T13:47:21.598Z,49.27
2018-07-11T13:48:30.465Z,44.17
2018-07-11T13:49:39.325Z,47.92
2018-07-11T13:50:48.542Z,47.72
2018-07-11T13:51:57.409Z,43.47
2018-07-11T13:53:06.271Z,44.53
2018-07-11T13:54:15.412Z,42.03
2018-07-11T13:55:24.274Z,42.89
2018-07-11T13:56:33.142Z,42.41
2018-07-11T13:57:42.006Z,40.95
2018-07-11T13:58:51.075Z,41.62
2018-07-11T13:59:59.934Z,40.76
2018-07-11T14:01:08.802Z,38.95
2018-07-11T14:02:17.819Z,40.01
2018-07-11T14:03:26.959Z,39.61
2018-07-11T14:04:35.823Z,38.93
2018-07-11T14:05:44.687Z,37.59
2018-07-11T14:06:53.551Z,37.7
2018-07-11T14:08:03.051Z,37.22
2018-07-11T14:09:11.915Z,35.08
2018-07-11T14:10:20.783Z,34.81
2018-07-11T14:11:29.921Z,35.77
2018-07-11T14:12:38.785Z,36.25
2018-07-11T14:13:47.646Z,35.49
2018-07-11T14:14:56.510Z,33.84
2018-07-11T14:16:05.376Z,34.14
2018-07-11T14:17:14.523Z,34.43
2018-07-11T14:18:23.385Z,33.08
2018-07-11T14:19:32.400Z,34.81
2018-07-11T14:20:41.550Z,33.37
2018-07-11T14:21:50.976Z,35.77
2018-07-11T14:22:59.838Z,34.62
2018-07-11T14:24:08.699Z,33.85
2018-07-11T14:25:17.566Z,35.2
2018-07-11T14:26:26.429Z,33.75
2018-07-11T14:27:35.360Z,33.56
2018-07-11T14:28:44.499Z,33.56
2018-07-11T14:29:53.365Z,32.89
2018-07-11T14:31:02.512Z,33.64
2018-07-11T14:32:11.374Z,33.66
2018-07-11T14:33:20.236Z,32.97
2018-07-11T14:34:29.098Z,32.87
2018-07-11T14:35:37.963Z,31.24
2018-07-11T14:36:46.974Z,31.92
2018-07-11T14:37:55.837Z,31.64
2018-07-11T14:39:05.255Z,31.92
2018-07-11T14:40:14.114Z,30.85
2018-07-11T14:41:23.254Z,30.49
2018-07-11T14:42:32.396Z,30.87
2018-07-11T14:43:41.538Z,31.05
2018-07-11T14:44:50.425Z,30.18
2018-07-11T14:45:59.261Z,29.62
2018-07-11T14:47:08.126Z,29.52
2018-07-11T14:48:17.339Z,28.95
2018-07-11T14:49:26.201Z,28.84
2018-07-11T14:50:35.064Z,28.16
2018-07-11T14:51:44.214Z,27.39
2018-07-11T14:52:53.357Z,26.35
2018-07-11T14:54:02.569Z,28.18
2018-07-11T14:55:11.439Z,27.69
2018-07-11T14:56:20.585Z,27.6
2018-07-11T14:57:29.445Z,27.3